Time;durP1;ratioP1;P1;durP2;ratioP2;P2;SDS_P1;SDS_P2;PMS_P1;PMS_P2;Temp;Humidity;BMP_temperature;BMP_pressure;BME280_temperature;BME280_humidity;BME280_pressure;Samples;Min_cycle;Max_cycle;Signal;HPM_P1;HPM_P2
2021/05/31 00:01:38;;;;;;;4.72;3.08;;;;;;;7.34;80.88;99033.53;5049374;28;20401;-62
2021/05/31 00:04:04;;;;;;;7.20;3.28;;;;;;;7.25;80.67;99028.31;5057009;28;20017;-62
2021/05/31 00:06:36;;;;;;;4.85;3.17;;;;;;;7.18;81.99;99023.06;5056532;28;20216;-62
2021/05/31 00:09:03;;;;;;;;;;;;;;;7.26;81.61;99026.56;5060008;28;20021;-62
2021/05/31 00:11:28;;;;;;;6.00;3.33;;;;;;;7.20;81.37;99027.44;5064291;28;20214;-62
2021/05/31 00:13:53;;;;;;;5.72;3.00;;;;;;;7.14;81.34;99016.97;5064230;28;20041;-62
2021/05/31 00:16:19;;;;;;;5.05;2.95;;;;;;;7.09;81.19;99017.84;5064215;28;20193;-62
2021/05/31 00:18:44;;;;;;;9.57;3.53;;;;;;;6.95;81.73;99025.66;5064167;28;20035;-62
2021/05/31 00:21:09;;;;;;;4.35;3.03;;;;;;;6.92;81.47;99012.56;5063449;28;20032;-62
2021/05/31 00:23:35;;;;;;;6.25;3.00;;;;;;;7.01;81.99;99009.09;5064078;28;20024;-62
2021/05/31 00:26:00;;;;;;;4.28;2.78;;;;;;;6.97;81.31;99017.81;5063919;28;20037;-62
2021/05/31 00:28:26;;;;;;;5.35;2.88;;;;;;;6.89;81.23;99009.97;5064035;28;20028;-62
2021/05/31 00:30:51;;;;;;;8.00;2.78;;;;;;;7.03;81.64;99007.34;5064223;28;20025;-62
2021/05/31 00:33:17;;;;;;;4.18;3.40;;;;;;;7.06;81.38;99010.88;5063939;28;20048;-62
2021/05/31 00:35:42;;;;;;;3.28;2.80;;;;;;;7.02;80.87;99001.25;5063954;28;20032;-62
2021/05/31 00:38:07;;;;;;;6.90;3.22;;;;;;;6.96;81.38;99001.22;5063896;28;20269;-62
2021/05/31 00:40:33;;;;;;;4.82;2.78;;;;;;;6.77;81.04;99004.69;5063834;28;20062;-62
2021/05/31 00:42:58;;;;;;;3.72;2.88;;;;;;;6.78;81.19;99001.25;5063854;28;20060;-62
2021/05/31 00:45:24;;;;;;;4.75;3.72;;;;;;;6.68;82.61;98995.09;5063823;28;20088;-62
2021/05/31 00:47:50;;;;;;;7.55;3.15;;;;;;;6.74;83.20;98999.47;5054351;28;20208;-62
2021/05/31 00:50:16;;;;;;;6.00;3.42;;;;;;;6.78;82.96;99006.47;5048503;28;20022;-62
2021/05/31 00:52:42;;;;;;;7.40;2.90;;;;;;;6.81;82.12;99009.09;5047561;28;20047;-62
2021/05/31 00:55:08;;;;;;;6.90;3.00;;;;;;;6.85;81.65;99009.94;5045767;28;20378;-62
2021/05/31 00:57:34;;;;;;;7.57;3.15;;;;;;;6.61;82.30;99000.31;5044077;28;20068;-62
2021/05/31 01:00:00;;;;;;;3.88;2.63;;;;;;;6.70;82.60;99002.94;5047778;28;20025;-62
2021/05/31 01:02:28;;;;;;;6.03;3.85;;;;;;;6.55;81.65;98995.94;5047705;28;20090;-62
2021/05/31 01:04:53;;;;;;;4.43;2.80;;;;;;;6.59;82.44;98994.22;5047925;28;20040;-62
2021/05/31 01:07:39;;;;;;;3.38;2.80;;;;;;;6.53;82.39;98994.22;5047786;28;20017;-62
2021/05/31 01:10:25;;;;;;;5.00;2.97;;;;;;;6.62;82.28;98996.84;5048359;28;20013;-62
2021/05/31 01:13:09;;;;;;;4.47;2.63;;;;;;;6.66;81.87;98985.53;5050340;28;20053;-62
2021/05/31 01:15:45;;;;;;;5.00;2.85;;;;;;;6.50;81.65;98986.34;5049381;28;20025;-62
2021/05/31 01:18:18;;;;;;;5.22;3.25;;;;;;;6.36;81.70;98985.47;5057304;28;20052;-62
2021/05/31 01:20:56;;;;;;;5.57;3.05;;;;;;;6.43;82.89;98992.44;5057576;28;20025;-62
2021/05/31 01:23:26;;;;;;;5.25;3.08;;;;;;;6.44;82.25;98991.56;5058398;28;20017;-62
2021/05/31 01:26:13;;;;;;;5.43;3.03;;;;;;;6.39;82.53;98985.44;5058086;28;20033;-62
2021/05/31 01:28:57;;;;;;;3.95;2.90;;;;;;;6.31;82.00;98988.06;5056023;28;20091;-62
2021/05/31 01:31:44;;;;;;;5.82;3.30;;;;;;;6.20;83.13;98986.25;5053265;28;20017;-62
2021/05/31 01:34:11;;;;;;;5.50;2.83;;;;;;;6.23;83.23;98988.88;5060563;28;20028;-62
2021/05/31 01:36:53;;;;;;;4.55;3.40;;;;;;;6.36;82.74;98988.06;5059931;28;20041;-62
2021/05/31 01:39:23;;;;;;;4.00;2.83;;;;;;;6.29;82.19;98995.00;5050764;28;20415;-62
2021/05/31 01:41:49;;;;;;;2.95;2.33;;;;;;;6.28;81.96;98987.16;5059494;28;20021;-62
2021/05/31 01:44:17;;;;;;;3.95;3.10;;;;;;;6.31;81.86;98993.28;5059123;28;20095;-62
2021/05/31 01:46:43;;;;;;;3.90;2.80;;;;;;;6.20;81.20;98994.09;5060638;28;20208;-62
2021/05/31 01:49:10;;;;;;;4.30;2.70;;;;;;;6.04;81.09;98992.28;5060573;28;20043;-62
2021/05/31 01:51:37;;;;;;;4.95;3.10;;;;;;;6.03;81.92;98985.31;5059060;28;20020;-62
2021/05/31 01:54:08;;;;;;;4.28;2.42;;;;;;;6.17;82.42;98983.66;5051568;28;20088;-62
2021/05/31 01:56:38;;;;;;;4.07;2.80;;;;;;;6.00;81.89;98980.09;5052691;28;20036;-62
2021/05/31 01:59:05;;;;;;;3.55;2.55;;;;;;;5.91;82.59;98980.94;5052612;28;20048;-62
2021/05/31 02:01:33;;;;;;;3.83;3.20;;;;;;;5.90;82.82;98988.75;5051383;28;20073;-62
2021/05/31 02:03:59;;;;;;;4.65;2.90;;;;;;;6.01;82.54;98979.25;5052773;28;20021;-62
2021/05/31 02:06:25;;;;;;;6.53;3.25;;;;;;;6.02;82.04;98981.84;5052507;28;20259;-62
2021/05/31 02:08:51;;;;;;;3.78;2.85;;;;;;;5.97;81.68;98980.06;5052438;28;20021;-62
2021/05/31 02:11:32;;;;;;;3.78;2.80;;;;;;;5.89;82.23;98976.56;5054651;28;20435;-62
2021/05/31 02:14:02;;;;;;;4.72;3.08;;;;;;;5.85;82.17;98980.00;5051220;28;20252;-62
2021/05/31 02:16:41;;;;;;;5.18;2.53;;;;;;;5.82;81.10;98972.19;5047698;28;20219;-62
2021/05/31 02:19:09;;;;;;;5.68;3.30;;;;;;;5.72;82.01;98978.19;5046727;28;20094;-62
2021/05/31 02:21:36;;;;;;;4.55;3.20;;;;;;;5.68;82.74;98966.84;5046310;28;20025;-62
2021/05/31 02:24:01;;;;;;;6.88;2.90;;;;;;;5.73;82.86;98974.72;5047441;28;20029;-62
2021/05/31 02:26:28;;;;;;;5.00;3.22;;;;;;;5.73;83.08;98974.72;5049657;28;20053;-62
2021/05/31 02:28:53;;;;;;;6.35;2.90;;;;;;;5.72;82.79;98975.56;5060137;28;20045;-62
2021/05/31 02:31:19;;;;;;;7.97;3.38;;;;;;;5.73;82.27;98969.50;5059743;28;20031;-62
2021/05/31 02:33:47;;;;;;;5.70;3.17;;;;;;;5.69;81.59;98967.72;5061287;28;20029;-62
2021/05/31 02:36:12;;;;;;;3.85;2.95;;;;;;;5.67;82.01;98966.84;5052016;28;20048;-62
2021/05/31 02:38:38;;;;;;;3.92;2.80;;;;;;;5.52;81.82;98965.03;5051533;28;20316;-62
2021/05/31 02:41:04;;;;;;;6.05;3.00;;;;;;;5.52;82.51;98964.16;5051116;28;20021;-62
2021/05/31 02:43:29;;;;;;;3.20;2.70;;;;;;;5.50;82.21;98958.03;5058744;28;20016;-62
2021/05/31 02:45:55;;;;;;;6.40;3.10;;;;;;;5.35;82.57;98960.56;5060637;28;20020;-62
2021/05/31 02:48:22;;;;;;;4.13;2.60;;;;;;;5.30;82.29;98957.94;5060646;28;20065;-62
2021/05/31 02:50:48;;;;;;;4.13;2.97;;;;;;;5.30;82.29;98951.84;5049317;28;20013;-62
2021/05/31 02:53:14;;;;;;;4.20;2.75;;;;;;;5.44;82.62;98960.63;5045839;28;20056;-62
2021/05/31 02:55:39;;;;;;;7.18;3.35;;;;;;;5.38;82.23;98945.78;5045694;28;20028;-62
2021/05/31 02:58:05;;;;;;;4.18;2.92;;;;;;;5.33;82.15;98954.47;5045708;28;20025;-62
2021/05/31 03:00:30;;;;;;;3.47;2.80;;;;;;;5.29;82.69;98952.69;5048079;28;20032;-62
2021/05/31 03:02:56;;;;;;;4.60;3.05;;;;;;;5.12;82.55;98956.94;5053032;28;20021;-62
2021/05/31 03:05:26;;;;;;;4.63;3.25;;;;;;;5.07;82.21;98948.19;5057528;28;20065;-62
2021/05/31 03:07:51;;;;;;;3.33;2.47;;;;;;;5.14;83.07;98949.97;5057775;28;20019;-62
2021/05/31 03:10:17;;;;;;;6.70;2.90;;;;;;;4.90;82.38;98955.88;5057924;28;20017;-62
2021/05/31 03:12:43;;;;;;;5.65;2.97;;;;;;;5.04;82.93;98948.19;5058611;28;20032;-62
2021/05/31 03:15:10;;;;;;;4.78;2.92;;;;;;;4.98;82.53;98953.34;5058967;28;20205;-62
2021/05/31 03:17:36;;;;;;;7.30;2.70;;;;;;;5.00;83.55;98951.63;5049957;28;20031;-62
2021/05/31 03:20:04;;;;;;;3.88;2.80;;;;;;;4.95;83.42;98954.19;5051062;28;20029;-62
2021/05/31 03:22:29;;;;;;;3.67;2.42;;;;;;;4.91;81.88;98956.78;5050643;28;20064;-62
2021/05/31 03:24:55;;;;;;;6.57;3.47;;;;;;;4.77;83.11;98964.47;5050392;28;20302;-62
2021/05/31 03:27:20;;;;;;;3.70;2.55;;;;;;;4.72;83.42;98960.09;5050611;28;20033;-62
2021/05/31 03:29:45;;;;;;;4.28;2.92;;;;;;;4.71;83.05;98963.56;5050903;28;20052;-62
2021/05/31 03:32:11;;;;;;;3.88;2.70;;;;;;;4.69;82.92;98966.16;5050180;28;20071;-62
2021/05/31 03:34:36;;;;;;;4.57;3.00;;;;;;;4.76;83.67;98967.94;5050349;28;20115;-62
2021/05/31 03:37:02;;;;;;;3.78;2.85;;;;;;;4.75;83.24;98962.72;5048454;28;20044;-62
2021/05/31 03:39:29;;;;;;;4.82;2.80;;;;;;;4.77;83.57;98964.47;5049511;28;20037;-62
2021/05/31 03:41:55;;;;;;;7.00;3.13;;;;;;;4.75;82.66;98965.31;5048317;28;20193;-62
2021/05/31 03:44:20;;;;;;;10.70;3.00;;;;;;;4.74;83.61;98959.22;5059084;28;20088;-62
2021/05/31 03:46:46;;;;;;;11.68;2.92;;;;;;;4.84;82.64;98961.03;5058489;28;20312;-62
2021/05/31 03:49:12;;;;;;;8.85;2.55;;;;;;;4.81;82.74;98960.16;5058619;28;20324;-62
2021/05/31 03:51:37;;;;;;;3.50;2.50;;;;;;;4.70;82.83;98967.00;5057746;28;20012;-62
2021/05/31 03:54:03;;;;;;;6.60;3.00;;;;;;;4.79;83.06;98972.31;5058537;28;20144;-62
2021/05/31 03:56:28;;;;;;;3.92;2.85;;;;;;;4.79;82.33;98970.59;5059014;28;20020;-62
2021/05/31 03:58:54;;;;;;;3.45;2.53;;;;;;;4.74;83.64;98979.22;5058138;28;20036;-62
2021/05/31 04:01:20;;;;;;;4.93;2.88;;;;;;;4.67;83.25;98969.59;5055911;28;20025;-62
2021/05/31 04:03:46;;;;;;;12.60;2.97;;;;;;;4.73;83.20;98969.63;5062726;28;20340;-62
2021/05/31 04:11:40;;;;;;;9.80;2.92;;;;;;;4.85;81.74;98977.59;5064035;28;20039;-62
2021/05/31 04:14:09;;;;;;;12.93;3.85;;;;;;;4.83;83.13;98968.84;5064514;28;20028;-62
2021/05/31 04:16:37;;;;;;;5.00;3.33;;;;;;;4.83;82.78;98979.28;5064246;28;20216;-62
2021/05/31 04:19:05;;;;;;;4.53;2.35;;;;;;;4.79;82.58;98969.69;5064170;28;20035;-62
2021/05/31 04:21:31;;;;;;;3.33;2.65;;;;;;;4.86;82.52;98980.19;5064058;28;20023;-62
2021/05/31 04:23:56;;;;;;;5.85;2.78;;;;;;;5.01;81.71;98974.22;5064067;28;20051;-62
2021/05/31 04:26:23;;;;;;;5.70;3.20;;;;;;;4.93;81.67;98970.72;5063905;28;20040;-62
2021/05/31 04:28:48;;;;;;;14.73;3.30;;;;;;;5.02;82.03;98976.84;5064038;28;20096;-62
2021/05/31 04:31:14;;;;;;;10.60;2.53;;;;;;;5.22;82.37;98966.56;5064026;28;20091;-62
2021/05/31 04:33:40;;;;;;;3.92;2.50;;;;;;;5.86;79.34;98955.66;5063960;28;20025;-62
2021/05/31 04:36:05;;;;;;;5.82;2.90;;;;;;;7.17;76.50;98959.38;5063968;28;20021;-62
2021/05/31 04:38:31;;;;;;;6.30;2.67;;;;;;;8.29;72.87;98963.44;5063929;28;20024;-62
2021/05/31 04:40:56;;;;;;;7.07;2.67;;;;;;;9.20;70.59;98954.94;5063898;28;20212;-62
2021/05/31 04:43:22;;;;;;;3.35;2.13;;;;;;;9.97;66.58;98955.00;5063857;28;20051;-62
2021/05/31 04:45:47;;;;;;;2.72;1.95;;;;;;;10.70;64.55;98950.53;5063870;28;20201;-62
2021/05/31 04:48:13;;;;;;;3.38;2.03;;;;;;;11.00;63.42;98957.94;5064099;28;20055;-63
2021/05/31 04:50:38;;;;;;;3.58;1.88;;;;;;;11.29;63.44;98945.16;5063742;28;20016;-63
2021/05/31 04:53:04;;;;;;;4.22;2.40;;;;;;;12.03;59.99;98955.22;5063811;28;20088;-63
2021/05/31 04:55:30;;;;;;;4.93;2.33;;;;;;;12.54;58.40;98955.88;5063763;28;20098;-63
2021/05/31 04:57:56;;;;;;;5.25;1.95;;;;;;;12.99;57.49;98955.75;5063745;28;20024;-63
2021/05/31 05:00:22;;;;;;;4.30;2.10;;;;;;;13.27;56.23;98950.66;5063622;28;20025;-63
2021/05/31 05:02:47;;;;;;;2.80;2.00;;;;;;;13.60;55.44;98954.22;5063620;28;20062;-63
2021/05/31 05:05:13;;;;;;;2.33;2.05;;;;;;;13.71;55.52;98950.38;5063627;28;20052;-63
2021/05/31 05:07:46;;;;;;;2.80;2.00;;;;;;;13.95;54.74;98952.31;5066866;28;20025;-63
2021/05/31 05:10:19;;;;;;;2.25;2.05;;;;;;;13.92;55.59;98943.63;5067747;28;20025;-63
2021/05/31 05:12:49;;;;;;;4.63;2.00;;;;;;;14.01;55.26;98957.44;5067697;28;20032;-63
2021/05/31 05:15:17;;;;;;;3.75;2.35;;;;;;;14.27;55.33;98954.13;5067616;28;20324;-63
2021/05/31 05:17:44;;;;;;;2.22;1.85;;;;;;;14.86;54.81;98947.88;5067626;28;20029;-63
2021/05/31 05:20:11;;;;;;;5.57;2.10;;;;;;;15.03;55.26;98943.75;5067727;28;20025;-63
2021/05/31 05:22:36;;;;;;;3.03;1.90;;;;;;;15.38;55.38;98945.31;5067775;28;20094;-63
2021/05/31 05:25:02;;;;;;;3.90;2.17;;;;;;;15.68;54.62;98954.88;5067269;28;20324;-63
2021/05/31 05:27:28;;;;;;;2.78;2.30;;;;;;;15.78;52.86;98940.34;5067690;28;20028;-63
2021/05/31 05:29:53;;;;;;;2.90;1.77;;;;;;;15.83;52.27;98942.84;5067361;28;20063;-63
2021/05/31 05:32:19;;;;;;;3.47;1.80;;;;;;;16.62;50.20;98942.53;5067283;28;20323;-63
2021/05/31 05:34:45;;;;;;;3.13;1.92;;;;;;;16.71;48.59;98942.16;5067220;28;20422;-63
2021/05/31 05:37:22;;;;;;;3.03;1.80;;;;;;;17.05;47.50;98934.59;5067185;28;20056;-63
2021/05/31 05:49:46;;;;;;;5.60;1.92;;;;;;;19.43;45.38;98953.09;5066994;28;20247;-63
2021/05/31 05:52:12;;;;;;;2.72;1.70;;;;;;;19.93;47.21;98964.72;5066904;28;20088;-63
2021/05/31 05:54:38;;;;;;;4.05;2.22;;;;;;;20.25;43.22;98963.94;5066877;28;20127;-63
2021/05/31 05:57:03;;;;;;;4.53;2.00;;;;;;;20.35;46.18;98967.00;5066871;28;20021;-63
2021/05/31 05:59:29;;;;;;;2.83;1.65;;;;;;;20.39;39.38;98953.41;5066761;28;20016;-63
2021/05/31 06:01:54;;;;;;;4.00;1.75;;;;;;;19.57;41.76;98955.94;5066737;28;20013;-63
2021/05/31 06:04:20;;;;;;;3.17;1.60;;;;;;;20.07;39.29;98967.56;5066638;28;20096;-63
2021/05/31 06:06:46;;;;;;;3.63;1.70;;;;;;;20.73;38.78;98965.81;5066666;28;20048;-63
2021/05/31 06:09:14;;;;;;;4.70;1.73;;;;;;;20.72;38.06;98967.59;5066581;28;20017;-63
2021/05/31 06:11:40;;;;;;;4.32;1.40;;;;;;;21.27;37.02;98963.59;5066532;28;20021;-63
2021/05/31 06:14:05;;;;;;;2.60;1.58;;;;;;;21.09;38.23;98961.13;5066527;28;20088;-63
2021/05/31 06:16:31;;;;;;;3.55;1.95;;;;;;;21.39;39.20;98969.22;5066459;28;20028;-63
2021/05/31 06:18:57;;;;;;;2.53;1.75;;;;;;;21.81;35.63;98964.06;5065351;28;20328;-63
2021/05/31 06:21:22;;;;;;;3.72;1.60;;;;;;;21.58;36.54;98953.81;5066280;28;20025;-63
2021/05/31 06:23:48;;;;;;;7.18;1.83;;;;;;;21.74;35.80;98954.66;5066322;28;20025;-63
2021/05/31 06:26:13;;;;;;;2.95;1.77;;;;;;;21.45;35.22;98966.19;5066136;28;20147;-63
2021/05/31 06:28:39;;;;;;;3.85;1.52;;;;;;;20.66;37.36;98967.09;5066216;28;20025;-63
2021/05/31 06:31:04;;;;;;;1.83;1.60;;;;;;;21.00;36.40;98957.16;5066223;28;20083;-63
2021/05/31 06:33:30;;;;;;;2.90;1.50;;;;;;;20.86;34.75;98957.03;5066160;28;20012;-63
2021/05/31 06:35:57;;;;;;;2.40;1.20;;;;;;;21.78;33.65;98956.22;5066097;28;20024;-63
2021/05/31 06:38:23;;;;;;;2.38;1.33;;;;;;;21.51;33.98;98955.13;5066042;28;20024;-63
2021/05/31 06:40:48;;;;;;;2.97;1.42;;;;;;;21.58;32.48;98945.78;5065902;28;20382;-63
2021/05/31 06:43:14;;;;;;;1.77;1.38;;;;;;;21.24;33.17;98945.03;5066003;28;20368;-63
2021/05/31 06:45:39;;;;;;;2.33;1.45;;;;;;;22.21;33.38;98950.00;5065930;28;20339;-63
2021/05/31 06:48:06;;;;;;;3.88;1.30;;;;;;;22.05;33.56;98959.94;5065855;28;20052;-63
2021/05/31 06:50:33;;;;;;;3.55;1.40;;;;;;;22.13;31.69;98952.28;5065838;28;20018;-63
2021/05/31 06:52:59;;;;;;;4.28;1.50;;;;;;;22.50;32.00;98946.41;5065761;28;20028;-63
2021/05/31 06:55:26;;;;;;;2.20;1.40;;;;;;;22.32;29.70;98942.16;5065739;28;20048;-63
2021/05/31 06:57:52;;;;;;;3.58;1.70;;;;;;;22.43;30.43;98956.63;5065980;28;20031;-63
2021/05/31 07:00:23;;;;;;;4.63;1.70;;;;;;;21.88;31.17;98941.28;5065616;28;20250;-63
2021/05/31 07:02:49;;;;;;;1.35;1.23;;;;;;;22.26;30.08;98953.25;5065573;28;20031;-63
2021/05/31 07:05:15;;;;;;;3.47;1.38;;;;;;;22.35;30.43;98947.31;5065595;28;20021;-63
2021/05/31 07:07:41;;;;;;;2.78;1.27;;;;;;;22.55;30.46;98944.28;5065504;28;20027;-63
2021/05/31 07:10:09;;;;;;;4.28;1.40;;;;;;;22.20;29.74;98949.13;5065475;28;20375;-63
2021/05/31 07:12:35;;;;;;;3.65;1.55;;;;;;;22.03;30.11;98956.47;5065421;28;20078;-63
2021/05/31 07:15:04;;;;;;;1.23;1.10;;;;;;;22.60;30.12;98942.19;5065372;28;20316;-63
2021/05/31 07:17:32;;;;;;;2.25;1.20;;;;;;;22.74;29.68;98953.78;5065343;28;20057;-63
2021/05/31 07:19:59;;;;;;;4.10;1.60;;;;;;;22.76;29.34;98954.56;5065214;28;20048;-63
2021/05/31 07:22:26;;;;;;;4.88;1.50;;;;;;;22.70;30.38;98954.06;5065193;28;20024;-63
2021/05/31 07:24:52;;;;;;;2.58;1.38;;;;;;;22.06;30.34;98951.81;5064893;28;20024;-63
2021/05/31 07:27:19;;;;;;;2.20;1.23;;;;;;;20.95;31.42;98943.16;5065191;28;20028;-63
2021/05/31 07:29:44;;;;;;;3.95;1.52;;;;;;;21.01;31.78;98953.50;5064912;28;20024;-63
2021/05/31 07:32:10;;;;;;;2.20;1.40;;;;;;;21.36;31.36;98956.00;5065023;28;20032;-63
2021/05/31 07:34:36;;;;;;;3.28;1.83;;;;;;;22.13;29.71;98957.63;5064971;28;20067;-63
2021/05/31 07:37:03;;;;;;;3.70;1.10;;;;;;;22.94;29.38;98949.84;5065175;28;20116;-63
2021/05/31 07:39:28;;;;;;;2.95;1.40;;;;;;;23.66;28.18;98952.25;5064895;28;20094;-63
2021/05/31 07:41:54;;;;;;;2.33;1.35;;;;;;;22.05;28.78;98951.88;5064800;28;20033;-63
2021/05/31 07:44:20;;;;;;;1.88;1.30;;;;;;;22.84;28.77;98940.63;5064809;28;20048;-63
2021/05/31 07:46:45;;;;;;;1.77;1.15;;;;;;;23.35;27.71;98942.69;5064803;28;20324;-63
2021/05/31 07:49:11;;;;;;;2.40;1.38;;;;;;;23.07;28.01;98937.34;5064724;28;20058;-63
2021/05/31 07:51:41;;;;;;;1.88;1.17;;;;;;;22.29;28.51;98926.25;5064680;28;20021;-63
2021/05/31 07:54:07;;;;;;;2.47;1.30;;;;;;;23.64;27.45;98928.16;5064916;28;20024;-63
2021/05/31 07:56:33;;;;;;;1.90;1.20;;;;;;;22.75;27.81;98938.53;5064622;28;20070;-63
2021/05/31 07:58:58;;;;;;;4.10;1.48;;;;;;;23.31;27.34;98933.06;5064543;28;20032;-63
2021/05/31 08:01:24;;;;;;;5.50;1.35;;;;;;;22.74;27.30;98945.72;5064415;28;20317;-63
2021/05/31 08:03:50;;;;;;;4.32;1.42;;;;;;;22.96;27.40;98929.09;5064384;28;20080;-63
2021/05/31 08:06:16;;;;;;;2.58;1.35;;;;;;;23.28;26.11;98935.97;5064705;28;20052;-63
2021/05/31 08:08:42;;;;;;;1.50;1.20;;;;;;;23.18;27.31;98945.56;5064371;28;20048;-63
2021/05/31 08:11:12;;;;;;;3.72;1.25;;;;;;;22.48;26.96;98932.19;5064330;28;20021;-63
2021/05/31 08:13:38;;;;;;;3.03;1.50;;;;;;;22.43;27.62;98953.09;5064277;28;20025;-63
2021/05/31 08:16:04;;;;;;;2.28;1.40;;;;;;;22.33;26.69;98943.84;5063103;28;20025;-63
2021/05/31 08:18:31;;;;;;;5.25;0.90;;;;;;;22.27;26.58;98933.53;5064263;28;20392;-63
2021/05/31 08:20:57;;;;;;;4.55;1.48;;;;;;;23.01;25.56;98932.38;5064140;28;20028;-63
2021/05/31 08:23:22;;;;;;;4.05;1.33;;;;;;;23.02;24.97;98923.34;5064129;28;20336;-63
2021/05/31 08:25:48;;;;;;;4.78;1.17;;;;;;;22.68;25.78;98921.09;5063941;28;20076;-63
2021/05/31 08:28:13;;;;;;;5.20;1.40;;;;;;;22.71;26.60;98928.94;5064087;28;20032;-63
2021/05/31 08:30:41;;;;;;;2.38;1.25;;;;;;;22.06;25.66;98937.53;5064033;28;20023;-63
2021/05/31 08:33:07;;;;;;;2.63;1.48;;;;;;;22.12;26.30;98926.44;5064268;28;20021;-63
2021/05/31 08:35:38;;;;;;;2.35;1.30;;;;;;;22.79;25.24;98923.97;5064235;28;20021;-63
2021/05/31 08:38:04;;;;;;;3.22;1.10;;;;;;;22.54;27.13;98926.47;5063993;28;20033;-63
2021/05/31 08:40:29;;;;;;;2.40;1.30;;;;;;;23.45;25.77;98918.72;5063791;28;20208;-63
2021/05/31 08:42:56;;;;;;;1.20;1.10;;;;;;;23.68;26.24;98929.66;5063648;28;20348;-63
2021/05/31 08:45:24;;;;;;;2.75;1.35;;;;;;;23.45;25.15;98922.28;5063967;28;20090;-63
2021/05/31 08:47:52;;;;;;;1.80;1.25;;;;;;;23.90;25.67;98937.13;5064068;28;20028;-63
2021/05/31 08:50:32;;;;;;;4.13;1.17;;;;;;;23.79;24.48;98931.63;5063815;28;20021;-63
2021/05/31 08:52:57;;;;;;;2.30;1.42;;;;;;;23.20;24.37;98919.47;5063877;28;20072;-63
2021/05/31 08:55:26;;;;;;;2.83;1.10;;;;;;;23.88;23.87;98929.16;5063768;28;20316;-63
2021/05/31 08:57:53;;;;;;;2.65;1.40;;;;;;;23.38;25.38;98926.31;5063749;28;20342;-63
2021/05/31 09:00:30;;;;;;;3.03;1.45;;;;;;;23.73;24.89;98911.38;5063665;28;20323;-63
2021/05/31 09:03:17;;;;;;;4.30;1.40;;;;;;;22.94;24.43;98906.88;5063668;28;20220;-63
2021/05/31 09:05:44;;;;;;;3.13;1.23;;;;;;;22.76;24.91;98926.84;5063728;28;20017;-63
2021/05/31 09:08:14;;;;;;;4.25;1.27;;;;;;;22.81;26.10;98908.63;5063639;28;20029;-63
2021/05/31 09:10:55;;;;;;;4.30;1.70;;;;;;;23.23;26.28;98905.88;5063652;28;20063;-63
2021/05/31 09:13:25;;;;;;;2.85;1.25;;;;;;;23.77;26.19;98907.53;5063717;28;20025;-63
2021/05/31 09:16:16;;;;;;;2.75;1.48;;;;;;;24.59;24.34;98911.59;5063514;28;20031;-63
2021/05/31 09:18:49;;;;;;;2.90;1.30;;;;;;;25.19;24.58;98909.81;5063557;28;20036;-63
2021/05/31 09:21:28;;;;;;;2.83;1.48;;;;;;;24.06;26.15;98914.50;5063505;28;20025;-63
2021/05/31 09:23:55;;;;;;;2.55;1.40;;;;;;;24.26;23.67;98900.50;5063571;28;20035;-63
2021/05/31 09:26:21;;;;;;;2.58;1.35;;;;;;;24.78;24.11;98920.06;5063381;28;20068;-63
2021/05/31 09:28:58;;;;;;;2.75;1.42;;;;;;;24.65;22.90;98899.56;5063564;28;20316;-63
2021/05/31 09:31:25;;;;;;;5.20;1.60;;;;;;;24.39;24.46;98912.13;5063551;28;20059;-63
2021/05/31 09:34:00;;;;;;;2.97;1.33;;;;;;;24.28;24.02;98906.66;5063401;28;20039;-63
2021/05/31 09:36:27;;;;;;;3.58;1.60;;;;;;;24.29;24.86;98931.72;5063619;28;20060;-63
2021/05/31 09:38:53;;;;;;;4.53;1.95;;;;;;;24.83;22.88;98901.75;5063363;28;20024;-63
2021/05/31 09:41:31;;;;;;;1.70;1.00;;;;;;;23.31;25.65;98903.53;5063247;28;20063;-63
2021/05/31 09:43:58;;;;;;;2.88;1.20;;;;;;;24.34;23.65;98908.91;5063362;28;20127;-63
2021/05/31 09:46:39;;;;;;;3.25;1.25;;;;;;;25.51;24.26;98903.91;5063240;28;20247;-63
2021/05/31 09:49:15;;;;;;;4.45;1.50;;;;;;;24.76;24.04;98894.25;5063301;28;20025;-63
2021/05/31 09:51:58;;;;;;;6.25;1.42;;;;;;;24.55;23.58;98885.00;5063502;28;20033;-63
2021/05/31 09:54:33;;;;;;;3.90;1.40;;;;;;;25.16;23.41;98899.28;5066990;28;20228;-63
2021/05/31 09:57:00;;;;;;;4.78;1.20;;;;;;;24.71;23.26;98902.66;5067140;28;20024;-63
2021/05/31 09:59:30;;;;;;;4.15;1.60;;;;;;;24.92;24.47;98901.09;5066837;28;20091;-63
2021/05/31 10:02:00;;;;;;;3.70;1.10;;;;;;;24.74;22.62;98891.66;5066612;28;20029;-63
2021/05/31 10:09:51;;;;;;;2.97;1.20;;;;;;;24.27;22.01;98896.84;5066665;28;20108;-63
2021/05/31 10:12:16;;;;;;;1.52;1.00;;;;;;;24.59;23.88;98895.44;5066630;28;20320;-63
2021/05/31 10:14:44;;;;;;;3.20;1.25;;;;;;;23.78;24.75;98903.88;5066545;28;20094;-63
2021/05/31 10:17:13;;;;;;;3.53;1.23;;;;;;;24.25;25.45;98906.88;5066508;28;20043;-63
2021/05/31 10:19:41;;;;;;;3.13;1.20;;;;;;;24.27;24.06;98888.75;5066431;28;20025;-63
2021/05/31 10:22:06;;;;;;;3.72;1.40;;;;;;;23.90;24.43;98905.72;5066298;28;20025;-63
2021/05/31 10:24:34;;;;;;;2.60;1.02;;;;;;;24.02;24.39;98890.59;5066377;28;20025;-63
2021/05/31 10:27:02;;;;;;;2.05;1.17;;;;;;;23.36;24.60;98901.41;5066153;28;20090;-63
2021/05/31 10:29:28;;;;;;;3.50;1.13;;;;;;;22.80;24.47;98890.78;5066278;28;20055;-63
2021/05/31 10:32:05;;;;;;;4.72;1.30;;;;;;;22.63;24.07;98899.06;5066206;28;20017;-63
2021/05/31 10:34:30;;;;;;;2.67;1.20;;;;;;;22.94;23.84;98898.81;5066207;28;20029;-63
2021/05/31 10:36:55;;;;;;;1.63;1.17;;;;;;;23.15;25.21;98892.03;5066167;28;20052;-63
2021/05/31 10:39:27;;;;;;;3.20;1.40;;;;;;;22.32;24.04;98881.34;5066097;28;20375;-63
2021/05/31 10:42:06;;;;;;;3.83;1.10;;;;;;;22.44;24.68;98887.75;5066301;28;20025;-63
2021/05/31 10:44:32;;;;;;;5.95;1.50;;;;;;;22.41;25.82;98894.16;5066028;28;20017;-63
2021/05/31 10:47:26;;;;;;;2.47;1.17;;;;;;;22.73;25.54;98878.72;5065991;28;20025;-63
2021/05/31 10:49:56;;;;;;;4.88;1.30;;;;;;;23.15;25.74;98886.66;5065648;28;20051;-63
2021/05/31 10:52:22;;;;;;;2.65;1.15;;;;;;;23.14;24.14;98876.91;5066112;28;20250;-63
2021/05/31 10:54:48;;;;;;;4.63;1.10;;;;;;;23.07;23.68;98883.63;5065830;28;20056;-63
2021/05/31 10:57:13;;;;;;;4.82;1.10;;;;;;;22.92;21.99;98887.31;5065734;28;20078;-63
2021/05/31 10:59:50;;;;;;;2.70;1.20;;;;;;;22.67;23.63;98885.34;5065699;28;20025;-63
2021/05/31 11:02:27;;;;;;;1.98;0.95;;;;;;;22.73;23.43;98870.69;5070769;28;20035;-63
2021/05/31 11:05:04;;;;;;;3.63;1.13;;;;;;;23.54;24.63;98875.13;5066018;28;20331;-63
2021/05/31 11:07:29;;;;;;;3.38;1.10;;;;;;;23.05;23.11;98874.81;5065536;28;20035;-63
2021/05/31 11:09:55;;;;;;;2.78;1.17;;;;;;;23.09;24.28;98865.59;5065469;28;20052;-63
2021/05/31 11:12:28;;;;;;;2.95;1.45;;;;;;;22.67;24.09;98868.38;5065378;28;20027;-63
2021/05/31 11:15:06;;;;;;;3.80;1.25;;;;;;;22.85;24.50;98872.56;5065344;28;20045;-64
2021/05/31 11:17:32;;;;;;;6.40;1.15;;;;;;;23.07;26.32;98868.38;5064896;28;20071;-63
2021/05/31 11:19:57;;;;;;;2.03;1.13;;;;;;;23.02;24.35;98864.28;5062618;28;20021;-63
2021/05/31 11:22:28;;;;;;;3.90;1.00;;;;;;;22.35;22.06;98866.84;5065259;28;20021;-63
2021/05/31 11:24:58;;;;;;;2.75;1.08;;;;;;;22.70;23.28;98862.81;5065089;28;20112;-63
2021/05/31 11:27:24;;;;;;;3.35;1.25;;;;;;;22.19;22.22;98855.38;5065276;28;20079;-63
2021/05/31 11:29:50;;;;;;;1.50;0.95;;;;;;;22.07;23.21;98861.50;5065406;28;20212;-63
2021/05/31 11:32:17;;;;;;;1.65;1.10;;;;;;;22.01;24.52;98861.88;5065055;28;20025;-63
2021/05/31 11:34:52;;;;;;;6.53;1.10;;;;;;;21.76;24.77;98856.31;5065010;28;20324;-63
2021/05/31 11:37:21;;;;;;;5.25;1.30;;;;;;;21.59;25.80;98856.41;5064995;28;20024;-63
2021/05/31 11:39:46;;;;;;;6.75;1.38;;;;;;;21.63;24.92;98849.91;5064954;28;20324;-63
2021/05/31 11:42:12;;;;;;;2.63;1.58;;;;;;;21.56;28.24;98840.53;5064889;28;20028;-63
2021/05/31 11:44:38;;;;;;;1.33;1.00;;;;;;;21.41;25.89;98839.63;5064862;28;20082;-63
2021/05/31 11:47:04;;;;;;;1.83;0.90;;;;;;;21.22;25.20;98834.50;5065036;28;20073;-63
2021/05/31 11:49:35;;;;;;;3.70;1.15;;;;;;;21.37;27.38;98830.06;5064748;28;20324;-63
2021/05/31 11:52:12;;;;;;;1.55;0.82;;;;;;;21.49;26.02;98831.13;5064790;28;20321;-63
2021/05/31 11:54:42;;;;;;;1.85;0.98;;;;;;;21.39;25.86;98829.97;5064694;28;20051;-63
2021/05/31 11:57:10;;;;;;;2.63;1.30;;;;;;;21.50;25.81;98824.81;5064873;28;20220;-63
2021/05/31 11:59:41;;;;;;;2.22;1.00;;;;;;;21.41;27.02;98822.72;5064553;28;20027;-63
2021/05/31 12:02:08;;;;;;;3.60;1.13;;;;;;;21.49;28.90;98823.09;5064463;28;20024;-63